createdAt,value
2019-01-13T00:00:51.046Z,1.42
2019-01-13T00:03:20.144Z,1.39
2019-01-13T00:05:49.070Z,1.37
2019-01-13T00:08:18.073Z,1.36
2019-01-13T00:10:47.072Z,1.36
2019-01-13T00:13:16.136Z,1.38
2019-01-13T00:15:45.073Z,1.41
2019-01-13T00:18:14.009Z,1.51
2019-01-13T00:20:43.035Z,1.55
2019-01-13T00:23:12.184Z,1.55
2019-01-13T00:25:41.229Z,1.52
2019-01-13T00:28:10.276Z,1.52
2019-01-13T00:30:39.277Z,1.53
2019-01-13T00:33:08.303Z,1.47
2019-01-13T00:35:37.341Z,1.51
2019-01-13T00:38:06.367Z,1.49
2019-01-13T00:40:35.401Z,1.45
2019-01-13T00:43:04.899Z,1.42
2019-01-13T00:45:33.948Z,1.48
2019-01-13T00:48:03.031Z,1.50
2019-01-13T00:50:32.105Z,1.55
2019-01-13T00:53:01.144Z,1.52
2019-01-13T00:55:30.137Z,1.49
2019-01-13T00:57:59.261Z,1.45
2019-01-13T01:00:28.264Z,1.36
2019-01-13T01:02:57.266Z,1.32
2019-01-13T01:05:26.477Z,1.32
2019-01-13T01:07:55.474Z,1.28
2019-01-13T01:10:24.859Z,1.23
2019-01-13T01:12:53.929Z,1.26
2019-01-13T01:15:22.999Z,1.19
2019-01-13T01:17:52.317Z,1.22
2019-01-13T01:20:21.384Z,1.20
2019-01-13T01:22:50.420Z,1.28
2019-01-13T01:25:19.441Z,1.17
2019-01-13T01:27:48.538Z,1.19
2019-01-13T01:30:19.339Z,1.11
2019-01-13T01:32:48.383Z,1.06
2019-01-13T01:35:17.853Z,1.00
2019-01-13T01:37:47.204Z,1.07
2019-01-13T01:40:21.023Z,1.12
2019-01-13T01:42:50.449Z,1.20
2019-01-13T01:45:20.866Z,1.23
2019-01-13T01:47:49.907Z,1.30
2019-01-13T01:50:19.729Z,1.26
2019-01-13T01:52:48.753Z,1.29
2019-01-13T01:55:19.289Z,1.25
2019-01-13T01:57:48.350Z,1.28
2019-01-13T02:00:22.990Z,1.34
2019-01-13T02:02:52.308Z,1.27
2019-01-13T02:05:21.400Z,1.27
2019-01-13T02:07:50.577Z,1.34
2019-01-13T02:10:21.410Z,1.33
2019-01-13T02:12:51.523Z,1.37
2019-01-13T02:15:23.518Z,1.45
2019-01-13T02:17:52.651Z,1.55
2019-01-13T02:20:22.358Z,1.48
2019-01-13T02:22:51.445Z,1.54
2019-01-13T02:25:26.478Z,1.57
2019-01-13T02:27:55.498Z,1.49
2019-01-13T02:30:25.481Z,1.46
2019-01-13T02:32:54.725Z,1.50
2019-01-13T02:35:23.841Z,1.44
2019-01-13T02:37:52.957Z,1.48
2019-01-13T02:40:22.640Z,1.58
2019-01-13T02:42:51.842Z,1.54
2019-01-13T02:45:28.207Z,1.56
2019-01-13T02:47:57.278Z,1.58
2019-01-13T02:50:26.323Z,1.56
2019-01-13T02:52:55.404Z,1.67
2019-01-13T02:55:24.429Z,1.58
2019-01-13T02:57:53.528Z,1.56
2019-01-13T03:00:24.925Z,1.53
2019-01-13T03:02:54.122Z,1.57
2019-01-13T03:05:23.148Z,1.55
2019-01-13T03:07:52.392Z,1.53
2019-01-13T03:10:25.831Z,1.56
2019-01-13T03:12:55.130Z,1.58
2019-01-13T03:15:25.655Z,1.53
2019-01-13T03:17:54.737Z,1.53
2019-01-13T03:20:24.044Z,1.49
2019-01-13T03:22:53.433Z,1.52
2019-01-13T03:25:23.809Z,1.54
2019-01-13T03:27:52.928Z,1.54
2019-01-13T03:30:23.517Z,1.61
2019-01-13T03:32:52.547Z,1.54
2019-01-13T03:35:21.768Z,1.55
2019-01-13T03:37:50.750Z,1.62
2019-01-13T03:40:21.997Z,1.58
2019-01-13T03:42:51.105Z,1.63
2019-01-13T03:45:20.732Z,1.63
2019-01-13T03:47:49.818Z,1.61
2019-01-13T03:50:20.450Z,1.65
2019-01-13T03:52:53.203Z,1.62
2019-01-13T03:55:21.948Z,1.64
2019-01-13T03:57:50.921Z,1.66
2019-01-13T04:00:21.966Z,1.68
2019-01-13T04:02:51.013Z,1.68
2019-01-13T04:05:20.058Z,1.71
2019-01-13T04:07:49.260Z,1.65
2019-01-13T04:10:18.492Z,1.63
2019-01-13T04:12:47.602Z,1.64
2019-01-13T04:15:47.665Z,1.56
2019-01-13T04:18:16.739Z,1.62
2019-01-13T04:20:45.754Z,1.64
2019-01-13T04:23:14.779Z,1.65
2019-01-13T04:25:43.684Z,1.58
2019-01-13T04:28:12.724Z,1.60
2019-01-13T04:30:41.670Z,1.61
2019-01-13T04:33:10.715Z,1.64
2019-01-13T04:35:39.760Z,1.57
2019-01-13T04:38:08.809Z,1.60
2019-01-13T04:40:37.847Z,1.59
2019-01-13T04:43:06.888Z,1.60
2019-01-13T04:45:35.943Z,1.71
2019-01-13T04:48:04.988Z,1.69
2019-01-13T04:50:34.250Z,1.65
2019-01-13T04:53:03.247Z,1.69
2019-01-13T04:55:32.329Z,1.68
2019-01-13T04:58:01.407Z,1.77
2019-01-13T05:00:30.496Z,1.77
2019-01-13T05:02:59.499Z,1.77
2019-01-13T05:05:28.596Z,1.84
2019-01-13T05:07:57.627Z,1.88
2019-01-13T05:10:26.671Z,1.91
2019-01-13T05:12:55.778Z,1.97
2019-01-13T05:15:24.866Z,1.99
2019-01-13T05:17:53.803Z,2.03
2019-01-13T05:20:23.035Z,2.02
2019-01-13T05:22:51.950Z,1.99
2019-01-13T05:25:20.921Z,2.01
2019-01-13T05:27:49.828Z,2.06
2019-01-13T05:30:20.565Z,2.05
2019-01-13T05:32:49.543Z,2.15
2019-01-13T05:35:18.531Z,2.12
2019-01-13T05:37:47.479Z,2.17
2019-01-13T05:40:18.159Z,2.15
2019-01-13T05:42:47.530Z,2.17
2019-01-13T05:45:18.532Z,2.19
2019-01-13T05:47:47.943Z,2.22
2019-01-13T05:50:18.631Z,2.31
2019-01-13T05:52:49.416Z,2.37
2019-01-13T05:55:18.432Z,2.39
2019-01-13T05:57:47.384Z,2.36
2019-01-13T06:00:18.608Z,2.41
2019-01-13T06:02:47.584Z,2.47
2019-01-13T06:05:16.558Z,2.52
2019-01-13T06:07:45.825Z,2.53
2019-01-13T06:10:16.141Z,2.56
2019-01-13T06:12:45.212Z,2.57
2019-01-13T06:15:16.777Z,2.60
2019-01-13T06:17:45.697Z,2.58
2019-01-13T06:20:19.200Z,2.56
2019-01-13T06:22:48.173Z,2.53
2019-01-13T06:25:17.135Z,2.49
2019-01-13T06:27:46.202Z,2.48
2019-01-13T06:30:17.729Z,2.39
2019-01-13T06:32:46.688Z,2.28
2019-01-13T06:35:15.664Z,2.23
2019-01-13T06:37:44.642Z,2.24
2019-01-13T06:40:16.152Z,2.26
2019-01-13T06:42:45.425Z,2.16
2019-01-13T06:45:22.370Z,2.17
2019-01-13T06:47:51.239Z,2.13
2019-01-13T06:50:20.227Z,2.11
2019-01-13T06:52:49.189Z,2.14
2019-01-13T06:55:18.174Z,2.10
2019-01-13T06:57:47.146Z,2.17
2019-01-13T07:00:19.127Z,2.24
2019-01-13T07:02:48.103Z,2.33
2019-01-13T07:05:17.079Z,2.33
2019-01-13T07:07:46.072Z,2.32
2019-01-13T07:10:15.039Z,2.33
2019-01-13T07:12:44.014Z,2.36
2019-01-13T07:15:14.375Z,2.36
2019-01-13T07:17:43.287Z,2.43
2019-01-13T07:20:14.779Z,2.51
2019-01-13T07:22:43.773Z,2.49
2019-01-13T07:25:12.765Z,2.58
2019-01-13T07:27:41.755Z,2.53
2019-01-13T07:30:14.470Z,2.51
2019-01-13T07:32:43.444Z,2.56
2019-01-13T07:35:12.621Z,2.55
2019-01-13T07:37:41.619Z,2.65
2019-01-13T07:40:13.654Z,2.62
2019-01-13T07:42:42.566Z,2.62
2019-01-13T07:45:12.948Z,2.61
2019-01-13T07:47:42.072Z,2.66
2019-01-13T07:50:12.982Z,2.66
2019-01-13T07:52:41.987Z,2.72
2019-01-13T07:55:13.208Z,2.75
2019-01-13T07:57:42.175Z,2.63
2019-01-13T08:00:15.192Z,2.62
2019-01-13T08:02:44.195Z,2.58
2019-01-13T08:05:13.376Z,2.59
2019-01-13T08:07:42.403Z,2.59
2019-01-13T08:10:13.122Z,2.70
2019-01-13T08:12:42.337Z,2.69
2019-01-13T08:15:13.413Z,2.70
2019-01-13T08:17:42.316Z,2.74
2019-01-13T08:20:14.874Z,2.84
2019-01-13T08:22:43.873Z,2.85
2019-01-13T08:25:13.002Z,2.89
2019-01-13T08:27:42.007Z,2.93
2019-01-13T08:30:17.045Z,2.95
2019-01-13T08:32:46.530Z,2.99
2019-01-13T08:35:15.742Z,3.04
2019-01-13T08:37:44.670Z,3.04
2019-01-13T08:40:16.379Z,3.07
2019-01-13T08:42:45.400Z,3.10
2019-01-13T08:45:14.896Z,3.18
2019-01-13T08:47:43.913Z,3.17
2019-01-13T08:50:23.405Z,3.24
2019-01-13T08:52:52.414Z,3.26
2019-01-13T08:55:22.307Z,3.25
2019-01-13T08:57:51.306Z,3.12
2019-01-13T09:00:31.357Z,3.10
2019-01-13T09:03:00.259Z,3.01
2019-01-13T09:05:29.152Z,3.01
2019-01-13T09:07:58.144Z,3.09
2019-01-13T09:10:27.114Z,3.20
2019-01-13T09:12:56.865Z,3.30
2019-01-13T09:15:27.437Z,3.32
2019-01-13T09:17:56.403Z,3.31
2019-01-13T09:20:29.948Z,3.35
2019-01-13T09:23:00.499Z,3.36
2019-01-13T09:25:30.592Z,3.39
2019-01-13T09:27:59.606Z,3.35
2019-01-13T09:30:29.817Z,3.40
2019-01-13T09:32:58.818Z,3.37
2019-01-13T09:35:28.454Z,3.34
2019-01-13T09:37:57.411Z,3.35
2019-01-13T09:40:28.407Z,3.43
2019-01-13T09:42:58.048Z,3.40
2019-01-13T09:45:27.144Z,3.42
2019-01-13T09:47:56.096Z,3.36
2019-01-13T09:50:25.125Z,3.40
2019-01-13T09:52:54.391Z,3.34
2019-01-13T09:55:24.597Z,3.35
2019-01-13T09:57:53.940Z,3.29
2019-01-13T10:00:42.060Z,3.28
2019-01-13T10:03:11.376Z,3.29
2019-01-13T10:05:40.556Z,3.29
2019-01-13T10:08:09.748Z,3.35
2019-01-13T10:10:38.770Z,3.35
2019-01-13T10:13:07.725Z,3.36
2019-01-13T10:15:36.710Z,3.41
2019-01-13T10:18:05.899Z,3.43
2019-01-13T10:20:36.244Z,3.48
2019-01-13T10:23:05.535Z,3.44
2019-01-13T10:25:34.529Z,3.45
2019-01-13T10:28:03.705Z,3.49
2019-01-13T10:30:33.295Z,3.48
2019-01-13T10:33:02.311Z,3.45
2019-01-13T10:35:31.345Z,3.47
2019-01-13T10:38:00.346Z,3.44
2019-01-13T10:40:30.808Z,3.41
2019-01-13T10:43:00.370Z,3.42
2019-01-13T10:45:29.429Z,3.43
2019-01-13T10:47:58.413Z,3.41
2019-01-13T10:50:29.312Z,3.39
2019-01-13T10:53:00.413Z,3.37
2019-01-13T10:55:29.398Z,3.34
2019-01-13T10:57:58.373Z,3.34
2019-01-13T11:00:29.503Z,3.37
2019-01-13T11:03:02.258Z,3.36
2019-01-13T11:05:30.000Z,3.32
2019-01-13T11:07:59.026Z,3.30
2019-01-13T11:10:27.925Z,3.33
2019-01-13T11:12:56.758Z,3.30
2019-01-13T11:15:25.712Z,3.30
2019-01-13T11:17:54.690Z,3.29
2019-01-13T11:20:29.610Z,3.26
2019-01-13T11:22:58.562Z,3.29
2019-01-13T11:25:27.533Z,3.32
2019-01-13T11:27:56.510Z,3.31
2019-01-13T11:30:25.810Z,3.35
2019-01-13T11:32:54.893Z,3.36
2019-01-13T11:35:23.994Z,3.36
2019-01-13T11:37:52.987Z,3.39
2019-01-13T11:40:24.120Z,3.43
2019-01-13T11:42:53.132Z,3.46
2019-01-13T11:45:22.197Z,3.45
2019-01-13T11:47:51.270Z,3.53
2019-01-13T11:50:21.703Z,3.58
2019-01-13T11:52:50.882Z,3.60
2019-01-13T11:55:20.275Z,3.56
2019-01-13T11:57:49.277Z,3.58
2019-01-13T12:00:47.333Z,3.57
2019-01-13T12:03:17.147Z,3.57
2019-01-13T12:05:46.318Z,3.51
2019-01-13T12:08:15.435Z,3.51
2019-01-13T12:10:44.500Z,3.52
2019-01-13T12:13:13.482Z,3.56
2019-01-13T12:15:42.645Z,3.55
2019-01-13T12:18:11.733Z,3.51
2019-01-13T12:20:40.693Z,3.54
2019-01-13T12:23:09.685Z,3.59
2019-01-13T12:25:38.664Z,3.62
2019-01-13T12:28:07.655Z,3.58
2019-01-13T12:30:36.710Z,3.54
2019-01-13T12:33:05.982Z,3.59
2019-01-13T12:35:34.969Z,3.57
2019-01-13T12:38:04.188Z,3.62
2019-01-13T12:40:33.315Z,3.70
2019-01-13T12:43:03.408Z,3.67
2019-01-13T12:45:32.364Z,3.69
2019-01-13T12:48:01.351Z,3.57
2019-01-13T12:50:31.101Z,3.51
2019-01-13T12:53:00.468Z,3.47
2019-01-13T12:55:29.464Z,3.51
2019-01-13T12:57:58.377Z,3.50
2019-01-13T13:00:27.419Z,3.52
2019-01-13T13:02:57.661Z,3.49
2019-01-13T13:05:26.809Z,3.40
2019-01-13T13:07:55.751Z,3.42
2019-01-13T13:10:51.162Z,3.33
2019-01-13T13:13:20.213Z,3.27
2019-01-13T13:15:49.256Z,3.29
2019-01-13T13:18:18.231Z,3.19
2019-01-13T13:20:47.203Z,3.15
2019-01-13T13:23:16.199Z,3.12
2019-01-13T13:25:45.153Z,3.18
2019-01-13T13:28:14.091Z,3.09
2019-01-13T13:30:43.124Z,3.05
2019-01-13T13:33:12.102Z,3.01
2019-01-13T13:35:41.056Z,3.03
2019-01-13T13:38:10.283Z,3.01
2019-01-13T13:40:39.311Z,2.89
2019-01-13T13:43:08.457Z,2.90
2019-01-13T13:45:37.533Z,2.83
2019-01-13T13:48:06.832Z,2.76
2019-01-13T13:50:35.745Z,2.74
2019-01-13T13:53:06.094Z,2.71
2019-01-13T13:55:35.080Z,2.69
2019-01-13T13:58:04.472Z,2.63
2019-01-13T14:00:35.993Z,2.61
2019-01-13T14:03:05.385Z,2.47
2019-01-13T14:05:34.363Z,2.44
2019-01-13T14:08:03.533Z,2.40
2019-01-13T14:10:37.893Z,2.33
2019-01-13T14:13:06.856Z,2.21
2019-01-13T14:15:35.825Z,2.15
2019-01-13T14:18:05.001Z,2.14
2019-01-13T14:20:33.990Z,2.07
2019-01-13T14:23:02.890Z,1.96
2019-01-13T14:25:31.892Z,1.95
2019-01-13T14:28:00.854Z,1.97
2019-01-13T14:30:29.843Z,1.90
2019-01-13T14:32:58.925Z,1.99
2019-01-13T14:35:27.895Z,2.00
2019-01-13T14:37:56.859Z,1.97
2019-01-13T14:40:27.013Z,2.00
2019-01-13T14:42:55.992Z,2.06
2019-01-13T14:45:28.510Z,2.09
2019-01-13T14:47:57.486Z,2.11
2019-01-13T14:50:30.125Z,2.11
2019-01-13T14:52:59.138Z,2.01
2019-01-13T14:55:28.108Z,2.01
2019-01-13T14:57:56.940Z,2.02
2019-01-13T15:00:29.416Z,2.01
2019-01-13T15:02:58.671Z,1.99
2019-01-13T15:05:27.858Z,2.00
2019-01-13T15:07:56.747Z,1.98
2019-01-13T15:10:25.744Z,2.00
2019-01-13T15:12:54.788Z,2.00
2019-01-13T15:15:24.446Z,2.07
2019-01-13T15:17:53.742Z,2.13
2019-01-13T15:20:23.353Z,2.16
2019-01-13T15:22:52.564Z,2.09
2019-01-13T15:25:27.080Z,2.04
2019-01-13T15:27:56.070Z,2.12
2019-01-13T15:30:35.779Z,2.12
2019-01-13T15:33:05.685Z,2.25
2019-01-13T15:35:35.323Z,2.33
2019-01-13T15:38:04.856Z,2.36
2019-01-13T15:40:33.769Z,2.26
2019-01-13T15:43:02.833Z,2.32
2019-01-13T15:45:31.749Z,2.26
2019-01-13T15:48:00.717Z,2.24
2019-01-13T15:50:30.679Z,2.23
2019-01-13T15:52:59.664Z,2.24
2019-01-13T15:55:28.666Z,2.23
2019-01-13T15:57:57.502Z,2.24
2019-01-13T16:00:37.118Z,2.22
2019-01-13T16:03:08.347Z,2.19
2019-01-13T16:05:37.555Z,2.24
2019-01-13T16:08:06.739Z,2.27
2019-01-13T16:10:35.716Z,2.32
2019-01-13T16:13:05.000Z,2.35
2019-01-13T16:15:34.576Z,2.38
2019-01-13T16:18:03.763Z,2.41
2019-01-13T16:20:35.067Z,2.40
2019-01-13T16:23:04.676Z,2.34
2019-01-13T16:25:33.564Z,2.39
2019-01-13T16:28:02.612Z,2.40
2019-01-13T16:30:32.077Z,2.42
2019-01-13T16:33:01.091Z,2.45
2019-01-13T16:35:30.287Z,2.45
2019-01-13T16:38:00.523Z,2.51
2019-01-13T16:40:29.529Z,2.52
2019-01-13T16:42:58.434Z,2.54
2019-01-13T16:45:27.357Z,2.59
2019-01-13T16:47:56.359Z,2.61
2019-01-13T16:50:26.558Z,2.62
2019-01-13T16:52:57.216Z,2.69
2019-01-13T16:55:27.206Z,2.63
2019-01-13T16:57:56.391Z,2.73
2019-01-13T17:00:27.234Z,2.70
2019-01-13T17:02:56.598Z,2.76
2019-01-13T17:05:26.092Z,2.85
2019-01-13T17:07:55.083Z,2.83
2019-01-13T17:10:25.296Z,2.86
2019-01-13T17:12:54.241Z,2.93
2019-01-13T17:15:25.977Z,2.96
2019-01-13T17:17:54.869Z,2.94
2019-01-13T17:20:24.481Z,2.97
2019-01-13T17:22:53.378Z,2.92
2019-01-13T17:25:24.272Z,2.94
2019-01-13T17:27:53.227Z,3.00
2019-01-13T17:30:27.452Z,3.01
2019-01-13T17:32:56.476Z,3.07
2019-01-13T17:35:25.355Z,3.09
2019-01-13T17:37:54.361Z,3.17
2019-01-13T17:40:24.149Z,3.19
2019-01-13T17:42:53.335Z,3.25
2019-01-13T17:45:24.479Z,3.28
2019-01-13T17:47:53.675Z,3.34
2019-01-13T17:50:23.556Z,3.47
2019-01-13T17:52:52.937Z,3.51
2019-01-13T17:55:24.750Z,3.49
2019-01-13T17:57:53.842Z,3.50
2019-01-13T18:00:46.663Z,3.60
2019-01-13T18:03:18.549Z,3.58
2019-01-13T18:05:47.552Z,3.64
2019-01-13T18:08:16.445Z,3.59
2019-01-13T18:10:45.327Z,3.59
2019-01-13T18:13:14.218Z,3.70
2019-01-13T18:15:43.107Z,3.76
2019-01-13T18:18:12.018Z,3.71
2019-01-13T18:20:40.908Z,3.69
2019-01-13T18:23:09.797Z,3.71
2019-01-13T18:25:38.807Z,3.78
2019-01-13T18:28:07.892Z,3.82
2019-01-13T18:30:36.903Z,3.83
2019-01-13T18:33:05.891Z,3.90
2019-01-13T18:35:34.719Z,3.89
2019-01-13T18:38:03.612Z,3.96
2019-01-13T18:40:32.598Z,3.95
2019-01-13T18:43:01.559Z,3.95
2019-01-13T18:45:30.587Z,4.05
2019-01-13T18:47:59.677Z,4.05
2019-01-13T18:50:28.571Z,4.12
2019-01-13T18:53:06.570Z,4.17
2019-01-13T18:55:35.542Z,4.16
2019-01-13T18:58:04.967Z,4.21
2019-01-13T19:00:33.936Z,4.22
2019-01-13T19:03:02.949Z,4.22
2019-01-13T19:05:31.902Z,4.21
2019-01-13T19:08:00.880Z,4.23
2019-01-13T19:10:46.323Z,4.31
2019-01-13T19:13:21.745Z,4.30
2019-01-13T19:15:52.404Z,4.34
2019-01-13T19:18:21.409Z,4.37
2019-01-13T19:20:50.315Z,4.40
2019-01-13T19:23:22.439Z,4.40
2019-01-13T19:25:51.490Z,4.43
2019-01-13T19:28:20.303Z,4.49
2019-01-13T19:30:49.220Z,4.51
2019-01-13T19:33:18.101Z,4.53
2019-01-13T19:35:47.075Z,4.53
2019-01-13T19:38:16.044Z,4.53
2019-01-13T19:40:44.950Z,4.52
2019-01-13T19:43:13.817Z,4.53
2019-01-13T19:45:42.718Z,4.62
2019-01-13T19:48:11.685Z,4.56
2019-01-13T19:50:40.585Z,4.62
2019-01-13T19:53:09.482Z,4.57
2019-01-13T19:55:38.496Z,4.59
2019-01-13T19:58:07.865Z,4.60
2019-01-13T20:00:37.556Z,4.67
2019-01-13T20:03:07.453Z,4.66
2019-01-13T20:05:36.434Z,4.60
2019-01-13T20:08:05.614Z,4.64
2019-01-13T20:10:34.876Z,4.66
2019-01-13T20:13:03.924Z,4.71
2019-01-13T20:15:32.930Z,4.71
2019-01-13T20:18:01.906Z,4.73
2019-01-13T20:20:30.937Z,4.76
2019-01-13T20:22:59.928Z,4.76
2019-01-13T20:25:29.514Z,4.81
2019-01-13T20:27:58.458Z,4.84
2019-01-13T20:30:29.943Z,4.83
2019-01-13T20:32:59.392Z,4.85
2019-01-13T20:35:28.340Z,4.86
2019-01-13T20:37:57.352Z,4.88
2019-01-13T20:40:26.353Z,4.94
2019-01-13T20:42:55.263Z,4.87
2019-01-13T20:45:27.264Z,4.94
2019-01-13T20:47:56.298Z,4.93
2019-01-13T20:50:25.447Z,4.91
2019-01-13T20:52:54.467Z,4.94
2019-01-13T20:55:23.436Z,4.94
2019-01-13T20:57:52.339Z,4.95
2019-01-13T21:00:22.850Z,4.91
2019-01-13T21:02:51.676Z,4.95
2019-01-13T21:05:26.653Z,5.00
2019-01-13T21:07:51.535Z,5.01
2019-01-13T21:10:20.834Z,5.05
2019-01-13T21:12:49.807Z,5.01
2019-01-13T21:15:21.882Z,5.03
2019-01-13T21:17:57.213Z,5.02
2019-01-13T21:20:21.776Z,5.06
2019-01-13T21:22:50.767Z,5.08
2019-01-13T21:25:19.751Z,5.16
2019-01-13T21:27:49.059Z,5.15
2019-01-13T21:30:20.778Z,5.10
2019-01-13T21:32:49.701Z,5.10
2019-01-13T21:35:19.001Z,5.16
2019-01-13T21:37:47.973Z,5.12
2019-01-13T21:40:17.026Z,5.12
2019-01-13T21:42:46.048Z,5.09
2019-01-13T21:45:17.001Z,5.09
2019-01-13T21:47:45.986Z,5.11
2019-01-13T21:50:17.107Z,5.13
2019-01-13T21:52:46.292Z,5.11
2019-01-13T21:55:16.087Z,5.13
2019-01-13T21:57:45.087Z,5.15
2019-01-13T22:00:23.719Z,5.17
2019-01-13T22:02:52.908Z,5.18
2019-01-13T22:05:23.539Z,5.17
2019-01-13T22:07:52.652Z,5.21
2019-01-13T22:10:22.633Z,5.16
2019-01-13T22:12:51.806Z,5.18
2019-01-13T22:15:21.180Z,5.20
2019-01-13T22:17:50.186Z,5.20
2019-01-13T22:20:20.735Z,5.22
2019-01-13T22:22:49.722Z,5.24
2019-01-13T22:25:18.896Z,5.25
2019-01-13T22:27:47.865Z,5.25
2019-01-13T22:30:18.599Z,5.25
2019-01-13T22:32:47.650Z,5.22
2019-01-13T22:35:16.706Z,5.22
2019-01-13T22:37:45.705Z,5.22
2019-01-13T22:40:16.353Z,5.23
2019-01-13T22:42:45.275Z,5.26
2019-01-13T22:45:16.593Z,5.27
2019-01-13T22:47:45.924Z,5.31
2019-01-13T22:50:15.634Z,5.28
2019-01-13T22:52:44.906Z,5.26
2019-01-13T22:55:14.127Z,5.32
2019-01-13T22:57:43.237Z,5.36
2019-01-13T23:00:51.307Z,5.35
2019-01-13T23:03:20.593Z,5.38
2019-01-13T23:05:55.548Z,5.40
2019-01-13T23:08:20.391Z,5.42
2019-01-13T23:10:49.419Z,5.44
2019-01-13T23:13:18.435Z,5.45
2019-01-13T23:15:47.487Z,5.41
2019-01-13T23:18:16.431Z,5.34
2019-01-13T23:20:45.474Z,5.33
2019-01-13T23:23:14.489Z,5.32
2019-01-13T23:25:43.582Z,5.30
2019-01-13T23:28:12.491Z,5.29
2019-01-13T23:30:41.578Z,5.30
2019-01-13T23:33:10.653Z,5.27
2019-01-13T23:35:39.630Z,5.30
2019-01-13T23:38:08.648Z,5.36
2019-01-13T23:40:37.620Z,5.37
2019-01-13T23:43:06.560Z,5.42
2019-01-13T23:45:35.614Z,5.45
2019-01-13T23:48:04.616Z,5.45
2019-01-13T23:50:33.653Z,5.51
2019-01-13T23:53:02.665Z,5.49
2019-01-13T23:55:31.676Z,5.49
2019-01-13T23:58:00.722Z,5.50
